Time;durP1;ratioP1;P1;durP2;ratioP2;P2;SDS_P1;SDS_P2;PMS_P1;PMS_P2;Temp;Humidity;BMP_temperature;BMP_pressure;BME280_temperature;BME280_humidity;BME280_pressure;Samples;Min_cycle;Max_cycle;Signal;HPM_P1;HPM_P2
2023/10/29 00:03:14;;;;;;;50.30;26.80;;;;;;;9.98;100.00;99466.48;215119;1286;139118;-83
2023/10/29 00:08:15;;;;;;;50.90;27.30;;;;;;;9.99;100.00;99474.88;214617;1287;139916;-84
2023/10/29 00:13:16;;;;;;;43.70;24.30;;;;;;;10.01;100.00;99484.77;215321;1287;138792;-85
2023/10/29 00:18:17;;;;;;;56.00;28.40;;;;;;;10.03;100.00;99483.91;215265;1290;140637;-85
2023/10/29 00:23:18;;;;;;;52.90;29.00;;;;;;;10.04;100.00;99483.86;215509;1286;97974;-84
2023/10/29 00:28:19;;;;;;;52.40;27.80;;;;;;;10.05;100.00;99477.56;215077;1288;140497;-85
2023/10/29 00:33:19;;;;;;;47.80;27.00;;;;;;;10.06;100.00;99482.20;215117;1287;139608;-84
2023/10/29 00:38:20;;;;;;;52.10;28.20;;;;;;;10.07;100.00;99477.09;214994;1288;140804;-85
2023/10/29 00:43:21;;;;;;;49.40;30.20;;;;;;;10.09;100.00;99479.61;215306;1286;139852;-85
2023/10/29 00:48:22;;;;;;;53.80;28.20;;;;;;;10.10;100.00;99475.20;214674;1291;140563;-84
2023/10/29 00:53:24;;;;;;;46.80;26.40;;;;;;;10.09;100.00;99471.27;214929;1289;97947;-84
2023/10/29 00:58:25;;;;;;;44.00;25.90;;;;;;;10.09;100.00;99471.75;214448;1285;140185;-85
2023/10/29 01:03:26;;;;;;;52.70;28.40;;;;;;;10.10;100.00;99471.75;215034;1290;139654;-85
2023/10/29 01:08:26;;;;;;;51.60;29.70;;;;;;;10.08;100.00;99470.02;214320;1292;140611;-85
2023/10/29 01:13:27;;;;;;;47.80;29.00;;;;;;;10.07;100.00;99471.36;214834;1291;139563;-86
2023/10/29 01:18:27;;;;;;;49.40;29.10;;;;;;;10.07;100.00;99468.21;214449;1291;141530;-86
2023/10/29 01:23:30;;;;;;;51.70;30.40;;;;;;;10.09;100.00;99472.14;214967;1286;99117;-86
2023/10/29 01:28:31;;;;;;;44.30;25.10;;;;;;;10.09;100.00;99477.16;214250;1288;140212;-86
2023/10/29 01:33:32;;;;;;;46.70;25.80;;;;;;;10.09;100.00;99472.45;214729;1289;140758;-85
2023/10/29 01:38:33;;;;;;;44.60;24.70;;;;;;;10.07;100.00;99466.48;214211;1288;140691;-86
2023/10/29 01:43:34;;;;;;;41.60;25.10;;;;;;;10.04;100.00;99466.34;214987;1288;139210;-86
2023/10/29 01:48:34;;;;;;;41.10;24.10;;;;;;;10.04;100.00;99467.58;214210;1286;141052;-86
2023/10/29 01:53:35;;;;;;;39.40;22.80;;;;;;;10.02;100.00;99469.92;214906;1288;98117;-86
2023/10/29 01:58:35;;;;;;;37.40;22.10;;;;;;;10.01;100.00;99467.27;214593;1286;140646;-86
2023/10/29 02:03:36;;;;;;;41.00;23.90;;;;;;;9.99;100.00;99464.91;215083;1291;138687;-86
2023/10/29 02:08:37;;;;;;;36.70;20.40;;;;;;;9.96;100.00;99458.09;214546;1288;139702;-86
2023/10/29 02:13:37;;;;;;;35.90;21.30;;;;;;;9.94;100.00;99453.85;214899;1285;138708;-86
2023/10/29 02:18:38;;;;;;;36.10;21.40;;;;;;;9.92;100.00;99448.66;214468;1287;139964;-86
2023/10/29 02:23:39;;;;;;;36.10;21.20;;;;;;;9.85;100.00;99445.45;214897;1285;138678;-86
2023/10/29 02:28:39;;;;;;;31.40;18.80;;;;;;;9.81;100.00;99440.60;214498;1288;140431;-86
2023/10/29 02:33:40;;;;;;;36.50;19.70;;;;;;;9.75;100.00;99437.23;214850;1286;139116;-86
2023/10/29 02:38:42;;;;;;;32.40;18.30;;;;;;;9.66;100.00;99436.69;214378;1286;140174;-86
2023/10/29 02:43:43;;;;;;;32.10;19.80;;;;;;;9.60;100.00;99443.92;215036;1288;138862;-86
2023/10/29 02:48:44;;;;;;;32.90;19.40;;;;;;;9.54;100.00;99444.95;214530;1286;140911;-86
2023/10/29 02:53:45;;;;;;;36.90;20.80;;;;;;;9.46;100.00;99444.16;215153;1290;139469;-86
2023/10/29 02:58:46;;;;;;;45.80;23.70;;;;;;;9.40;100.00;99447.52;214916;1288;141204;-86
2023/10/29 03:03:46;;;;;;;33.10;19.30;;;;;;;9.33;100.00;99446.04;215518;1287;139036;-86
2023/10/29 03:08:47;;;;;;;34.10;18.60;;;;;;;9.24;100.00;99453.50;214986;1286;139828;-86
2023/10/29 03:13:48;;;;;;;29.10;17.40;;;;;;;9.18;100.00;99464.39;215355;1290;138714;-85
2023/10/29 03:18:48;;;;;;;27.40;17.50;;;;;;;9.11;100.00;99474.20;214365;1287;140668;-85
2023/10/29 03:23:49;;;;;;;26.80;16.30;;;;;;;9.04;100.00;99477.08;215144;1291;139772;-85
2023/10/29 03:28:50;;;;;;;30.90;16.80;;;;;;;8.99;100.00;99472.61;214638;1289;140015;-85
2023/10/29 03:33:51;;;;;;;30.80;17.60;;;;;;;8.93;100.00;99471.33;214899;1285;139686;-85
2023/10/29 03:38:51;;;;;;;28.30;17.90;;;;;;;8.86;100.00;99477.58;214372;1288;140268;-85
2023/10/29 03:43:52;;;;;;;38.20;20.10;;;;;;;8.78;100.00;99474.50;215097;1286;138906;-85
2023/10/29 03:48:53;;;;;;;32.90;19.80;;;;;;;8.71;100.00;99460.92;214806;1286;139827;-85
2023/10/29 03:53:57;;;;;;;32.00;17.00;;;;;;;8.67;100.00;99462.88;214839;1289;139477;-85
2023/10/29 03:58:57;;;;;;;28.00;17.40;;;;;;;8.62;100.00;99464.20;214427;1288;140328;-86
2023/10/29 04:03:58;;;;;;;27.50;16.60;;;;;;;8.58;100.00;99474.75;214893;1288;139172;-85
2023/10/29 04:08:59;;;;;;;28.80;17.20;;;;;;;8.54;100.00;99478.10;214244;1291;140269;-85
2023/10/29 04:13:59;;;;;;;24.70;15.30;;;;;;;8.49;100.00;99478.57;214744;1289;138699;-85
2023/10/29 04:19:00;;;;;;;28.40;15.10;;;;;;;8.48;100.00;99491.63;214669;1287;140620;-85
2023/10/29 04:24:01;;;;;;;26.40;15.30;;;;;;;8.47;100.00;99489.52;215059;1291;138854;-85
2023/10/29 04:29:01;;;;;;;27.90;14.60;;;;;;;8.47;100.00;99483.58;214859;1289;139716;-85
2023/10/29 04:34:02;;;;;;;30.40;15.60;;;;;;;8.48;100.00;99481.06;214781;1286;138768;-85
2023/10/29 04:39:03;;;;;;;40.80;20.20;;;;;;;8.49;100.00;99474.64;214783;1288;140182;-85
2023/10/29 04:44:04;;;;;;;36.10;20.20;;;;;;;8.49;100.00;99471.58;215259;1288;139254;-85
2023/10/29 04:49:05;;;;;;;34.00;18.30;;;;;;;8.50;100.00;99465.24;214819;1286;140786;-85
2023/10/29 04:54:07;;;;;;;31.90;18.00;;;;;;;8.51;100.00;99469.88;214635;1286;139112;-85
2023/10/29 04:59:07;;;;;;;31.00;18.00;;;;;;;8.53;100.00;99466.74;214279;1285;140725;-85
2023/10/29 05:04:08;;;;;;;37.90;20.10;;;;;;;8.55;100.00;99457.83;214621;1286;138689;-86
2023/10/29 05:09:09;;;;;;;41.50;22.30;;;;;;;8.57;100.00;99449.21;214137;1286;140792;-86
2023/10/29 05:14:10;;;;;;;34.80;18.10;;;;;;;8.59;100.00;99447.50;214590;1288;139046;-85
2023/10/29 05:19:10;;;;;;;42.70;18.10;;;;;;;8.61;100.00;99436.91;214162;1287;140331;-86
2023/10/29 05:24:11;;;;;;;31.30;17.20;;;;;;;8.64;100.00;99441.40;214542;1289;138838;-85
2023/10/29 05:29:12;;;;;;;29.60;16.00;;;;;;;8.67;100.00;99437.80;214298;1287;140328;-85
2023/10/29 05:34:14;;;;;;;26.70;15.60;;;;;;;8.69;100.00;99436.63;215110;1286;139399;-86
2023/10/29 05:39:15;;;;;;;28.60;15.90;;;;;;;8.72;100.00;99429.89;214367;1286;140159;-84
2023/10/29 05:44:15;;;;;;;25.50;14.80;;;;;;;8.76;100.00;99428.34;214933;1285;138816;-85
2023/10/29 05:49:16;;;;;;;24.30;13.90;;;;;;;8.78;100.00;99438.38;214183;1287;144813;-85
2023/10/29 05:54:18;;;;;;;23.30;14.80;;;;;;;8.82;100.00;99448.33;214541;1286;139875;-85
2023/10/29 05:59:20;;;;;;;22.30;14.90;;;;;;;8.86;100.00;99442.01;214261;1285;139989;-85
2023/10/29 06:04:21;;;;;;;28.60;16.30;;;;;;;8.88;100.00;99439.02;214620;1286;140316;-85
2023/10/29 06:09:21;;;;;;;32.90;17.00;;;;;;;8.91;100.00;99437.07;214234;1291;140423;-85
2023/10/29 06:14:22;;;;;;;37.80;19.00;;;;;;;8.94;100.00;99430.10;214643;1285;139015;-85
2023/10/29 06:19:23;;;;;;;33.60;16.30;;;;;;;8.97;100.00;99429.95;214413;1285;142215;-85
2023/10/29 06:24:24;;;;;;;26.40;14.80;;;;;;;9.00;100.00;99433.23;215047;1288;140219;-86
2023/10/29 06:29:24;;;;;;;23.00;13.80;;;;;;;9.04;100.00;99439.44;214556;1288;141113;-85
2023/10/29 06:34:25;;;;;;;22.10;12.90;;;;;;;9.08;100.00;99436.94;214865;1288;138619;-85
2023/10/29 06:39:25;;;;;;;22.90;13.10;;;;;;;9.13;100.00;99429.73;214286;1287;140731;-85
2023/10/29 06:44:25;;;;;;;54.00;26.40;;;;;;;9.15;100.00;99421.17;214744;1286;139214;-85
2023/10/29 06:49:26;;;;;;;36.10;16.80;;;;;;;9.22;100.00;99419.86;213935;1287;391756;-85
2023/10/29 06:54:27;;;;;;;21.20;11.80;;;;;;;9.26;100.00;99416.95;214801;1285;139504;-85
2023/10/29 06:59:30;;;;;;;19.80;10.80;;;;;;;9.31;100.00;99420.96;214330;1287;140923;-85
2023/10/29 07:04:32;;;;;;;20.90;11.90;;;;;;;9.37;100.00;99421.80;214636;1289;138737;-84
2023/10/29 07:09:32;;;;;;;18.40;9.70;;;;;;;9.43;100.00;99416.40;214252;1291;140430;-85
2023/10/29 07:14:33;;;;;;;23.20;12.10;;;;;;;9.48;100.00;99406.52;214887;1286;138775;-85
2023/10/29 07:19:33;;;;;;;28.30;11.30;;;;;;;9.53;100.00;99393.23;214488;1285;144145;-86
2023/10/29 07:24:36;;;;;;;19.80;11.70;;;;;;;9.57;100.00;99390.71;215128;1285;139023;-86
2023/10/29 07:29:37;;;;;;;26.40;13.20;;;;;;;9.62;100.00;99394.31;214623;1285;140654;-85
2023/10/29 07:34:38;;;;;;;26.90;14.90;;;;;;;9.67;100.00;99395.10;215245;1288;105433;-86
2023/10/29 07:39:39;;;;;;;28.30;15.60;;;;;;;9.74;100.00;99407.41;214661;1290;141129;-85
2023/10/29 07:44:39;;;;;;;25.00;14.90;;;;;;;9.80;100.00;99403.93;215065;1286;138871;-86
2023/10/29 07:49:40;;;;;;;22.20;13.90;;;;;;;9.88;100.00;99396.23;214739;1286;140265;-85
2023/10/29 07:54:40;;;;;;;26.80;16.50;;;;;;;9.95;100.00;99388.20;215214;1288;139157;-87
2023/10/29 07:59:41;;;;;;;38.90;20.50;;;;;;;10.03;100.00;99376.55;214646;1288;140043;-88
2023/10/29 08:04:42;;;;;;;23.80;16.10;;;;;;;10.12;100.00;99379.84;215368;1286;97977;-87
2023/10/29 08:09:43;;;;;;;29.50;14.80;;;;;;;10.21;100.00;99368.02;214732;1285;140272;-86
2023/10/29 08:14:43;;;;;;;25.70;14.80;;;;;;;10.29;100.00;99377.48;215129;1288;140288;-88
2023/10/29 08:19:45;;;;;;;23.40;13.50;;;;;;;10.38;100.00;99385.22;214715;1289;140440;-88
2023/10/29 08:24:46;;;;;;;21.00;13.30;;;;;;;10.45;100.00;99395.08;215214;1290;139357;-87
2023/10/29 08:29:48;;;;;;;25.50;14.30;;;;;;;10.52;100.00;99394.74;214877;1288;141168;-85
2023/10/29 08:34:49;;;;;;;22.20;13.90;;;;;;;10.60;100.00;99389.04;215331;1285;106063;-87
2023/10/29 08:39:50;;;;;;;24.10;12.60;;;;;;;10.67;100.00;99388.59;214419;1287;140642;-86
2023/10/29 08:44:56;;;;;;;20.90;12.20;;;;;;;10.73;100.00;99385.02;214888;1286;140116;-85
2023/10/29 08:49:57;;;;;;;25.20;13.80;;;;;;;10.80;100.00;99386.40;214784;1286;142022;-86
2023/10/29 08:54:58;;;;;;;24.00;13.40;;;;;;;10.89;100.00;99386.81;215268;1290;139247;-86
2023/10/29 08:59:59;;;;;;;20.10;10.70;;;;;;;10.98;100.00;99380.29;214357;1288;140335;-87
2023/10/29 09:04:59;;;;;;;22.80;10.30;;;;;;;11.08;100.00;99381.48;215183;1286;98051;-87
2023/10/29 09:10:00;;;;;;;18.30;10.20;;;;;;;11.16;100.00;99365.60;214945;1287;144321;-87
2023/10/29 09:15:01;;;;;;;20.70;10.40;;;;;;;11.24;100.00;99356.95;215342;1286;139884;-87
2023/10/29 09:20:03;;;;;;;22.70;10.00;;;;;;;11.34;100.00;99366.85;214582;1287;142574;-87
2023/10/29 09:25:04;;;;;;;17.30;10.10;;;;;;;11.42;100.00;99365.14;215303;1286;139548;-87
2023/10/29 09:30:06;;;;;;;16.90;10.10;;;;;;;11.50;100.00;99360.58;214581;1287;140527;-87
2023/10/29 09:35:07;;;;;;;17.90;8.70;;;;;;;11.60;100.00;99368.52;215035;1288;98879;-85
2023/10/29 09:40:09;;;;;;;19.60;9.40;;;;;;;11.73;100.00;99384.45;214462;1285;140113;-86
2023/10/29 09:45:11;;;;;;;22.20;10.50;;;;;;;11.84;100.00;99372.92;214923;1287;139663;-88
2023/10/29 09:50:13;;;;;;;23.10;12.00;;;;;;;11.96;100.00;99360.33;218239;1285;140527;-87
2023/10/29 09:55:15;;;;;;;15.60;7.60;;;;;;;12.10;100.00;99345.66;217994;1288;138979;-87
2023/10/29 10:00:17;;;;;;;16.70;8.10;;;;;;;12.26;100.00;99353.89;214814;1288;141193;-86
2023/10/29 10:05:20;;;;;;;13.30;6.60;;;;;;;12.38;100.00;99342.70;215568;1288;98282;-86
2023/10/29 10:10:21;;;;;;;16.70;8.00;;;;;;;12.50;100.00;99335.20;216127;1285;139740;-86
2023/10/29 10:15:22;;;;;;;13.50;6.50;;;;;;;12.66;100.00;99330.15;215506;1285;138693;-87
2023/10/29 10:20:23;;;;;;;16.70;7.30;;;;;;;12.75;100.00;99323.15;214793;1286;140533;-87
2023/10/29 10:25:25;;;;;;;15.50;6.00;;;;;;;12.79;100.00;99313.79;215821;1287;139581;-89
2023/10/29 10:30:29;;;;;;;11.50;5.90;;;;;;;12.83;100.00;99312.77;215710;1288;140282;-89
2023/10/29 10:35:45;;;;;;;14.80;6.20;;;;;;;12.88;100.00;99319.41;216091;1288;105908;-88
2023/10/29 10:40:46;;;;;;;12.90;5.90;;;;;;;12.90;100.00;99329.23;215356;1285;140319;-87
2023/10/29 10:45:51;;;;;;;14.00;5.70;;;;;;;12.89;100.00;99324.66;215812;1292;139600;-88
2023/10/29 10:50:53;;;;;;;11.70;5.70;;;;;;;12.91;100.00;99312.41;215339;1287;140422;-86
2023/10/29 10:55:54;;;;;;;12.40;5.40;;;;;;;12.91;100.00;99304.75;215940;1287;138970;-88
2023/10/29 11:00:56;;;;;;;11.90;5.10;;;;;;;12.94;100.00;99304.33;214638;1285;143694;-88
2023/10/29 11:05:57;;;;;;;10.40;5.20;;;;;;;12.97;100.00;99308.89;214862;1286;138863;-88
2023/10/29 11:10:59;;;;;;;12.90;5.60;;;;;;;12.97;100.00;99320.95;214648;1288;140071;-86
2023/10/29 11:16:01;;;;;;;13.20;5.20;;;;;;;12.98;100.00;99315.80;214628;1288;139017;-86
2023/10/29 11:21:04;;;;;;;15.30;5.90;;;;;;;13.00;100.00;99319.25;214576;1291;140477;-87
2023/10/29 11:26:33;;;;;;;14.70;6.50;;;;;;;13.02;100.00;99302.71;216270;1287;139156;-88
2023/10/29 11:31:34;;;;;;;15.30;7.20;;;;;;;13.05;100.00;99304.16;214536;1285;140890;-87
2023/10/29 11:36:40;;;;;;;15.20;6.40;;;;;;;13.08;100.00;99289.27;214986;1285;139022;-87
2023/10/29 11:41:47;;;;;;;14.00;5.90;;;;;;;13.08;100.00;99282.88;217551;1285;140587;-87
2023/10/29 11:46:57;;;;;;;14.10;5.80;;;;;;;13.09;100.00;99265.27;214863;1285;97870;-89
2023/10/29 11:52:03;;;;;;;13.50;6.00;;;;;;;13.08;100.00;99257.16;214366;1301;139496;-86
2023/10/29 11:57:05;;;;;;;14.30;6.20;;;;;;;13.09;100.00;99260.69;215159;1285;140205;-87
2023/10/29 12:02:06;;;;;;;15.10;7.00;;;;;;;13.12;100.00;99249.35;215335;1285;140275;-86
2023/10/29 12:07:07;;;;;;;16.50;6.90;;;;;;;13.15;100.00;99230.82;214432;1285;145059;-85
2023/10/29 12:12:09;;;;;;;18.70;7.60;;;;;;;13.19;100.00;99212.02;215026;1285;139263;-88
2023/10/29 12:17:10;;;;;;;22.60;6.90;;;;;;;13.24;100.00;99209.91;214535;1291;140592;-86
2023/10/29 12:22:27;;;;;;;15.10;6.90;;;;;;;13.28;100.00;99206.98;214968;1291;139257;-85
2023/10/29 12:27:28;;;;;;;16.50;6.20;;;;;;;13.30;100.00;99209.30;214711;1288;140070;-85
2023/10/29 12:32:29;;;;;;;15.10;6.70;;;;;;;13.34;100.00;99217.20;215282;1285;140195;-87
2023/10/29 12:37:30;;;;;;;17.30;5.50;;;;;;;13.39;100.00;99217.50;214548;1286;139903;-85
2023/10/29 12:42:52;;;;;;;15.10;6.40;;;;;;;13.44;100.00;99213.99;215394;1285;138874;-85
2023/10/29 12:48:12;;;;;;;16.50;7.20;;;;;;;13.49;100.00;99221.64;214613;1286;140849;-84
2023/10/29 12:53:26;;;;;;;21.20;7.30;;;;;;;13.55;100.00;99222.39;215492;1285;105312;-86
2023/10/29 12:58:30;;;;;;;13.50;5.90;;;;;;;13.58;100.00;99217.20;214689;1286;140115;-84
2023/10/29 13:03:31;;;;;;;15.00;6.00;;;;;;;13.61;100.00;99223.67;215104;1286;138753;-86
2023/10/29 13:08:32;;;;;;;14.00;5.20;;;;;;;13.65;100.00;99237.02;214513;1291;141278;-85
2023/10/29 13:13:32;;;;;;;11.60;5.50;;;;;;;13.69;100.00;99239.02;214933;1290;139086;-87
2023/10/29 13:18:33;;;;;;;12.70;5.50;;;;;;;13.71;100.00;99240.86;214352;1287;141197;-89
2023/10/29 13:23:34;;;;;;;13.70;4.80;;;;;;;13.73;100.00;99248.40;215100;1291;98839;-85
2023/10/29 13:28:34;;;;;;;11.40;4.40;;;;;;;13.76;100.00;99248.80;214563;1288;140046;-87
2023/10/29 13:33:35;;;;;;;13.30;5.10;;;;;;;13.77;100.00;99227.92;215142;1288;138743;-89
2023/10/29 13:38:38;;;;;;;13.10;5.80;;;;;;;13.75;100.00;99237.14;214640;1288;140181;-86
2023/10/29 13:43:38;;;;;;;12.90;4.90;;;;;;;13.75;100.00;99223.79;216170;1288;139260;-88
2023/10/29 13:48:39;;;;;;;14.20;5.40;;;;;;;13.75;100.00;99225.61;214637;1286;140034;-85
2023/10/29 13:53:40;;;;;;;16.20;6.20;;;;;;;13.75;100.00;99216.83;215101;1286;97858;-85
2023/10/29 13:58:42;;;;;;;13.80;5.30;;;;;;;13.76;100.00;99204.42;214621;1290;141788;-85
2023/10/29 14:03:42;;;;;;;10.00;4.40;;;;;;;13.76;100.00;99189.10;214976;1289;140041;-84
2023/10/29 14:08:44;;;;;;;13.20;5.40;;;;;;;13.75;100.00;99182.15;214625;1288;140867;-84
2023/10/29 14:13:44;;;;;;;15.20;6.20;;;;;;;13.76;100.00;99190.27;215164;1289;139003;-86
2023/10/29 14:18:45;;;;;;;12.00;5.70;;;;;;;13.77;100.00;99209.69;214759;1286;139867;-87
2023/10/29 14:23:46;;;;;;;11.80;5.90;;;;;;;13.77;100.00;99224.13;215285;1287;139183;-85
2023/10/29 14:28:46;;;;;;;14.50;5.80;;;;;;;13.78;100.00;99223.98;214874;1288;140038;-85
2023/10/29 14:33:49;;;;;;;13.70;6.60;;;;;;;13.76;100.00;99223.13;215257;1289;138815;-87
2023/10/29 14:38:50;;;;;;;14.20;7.00;;;;;;;13.77;100.00;99226.27;214532;1288;140271;-86
2023/10/29 14:43:50;;;;;;;13.30;6.80;;;;;;;13.76;100.00;99226.07;215345;1285;138815;-84
2023/10/29 14:48:51;;;;;;;21.00;8.20;;;;;;;13.75;100.00;99220.17;214766;1289;140293;-84
2023/10/29 14:53:52;;;;;;;21.20;10.10;;;;;;;13.73;100.00;99236.55;215000;1288;138894;-86
2023/10/29 14:58:52;;;;;;;20.20;11.40;;;;;;;13.73;100.00;99212.61;214779;1285;140574;-84
2023/10/29 15:03:53;;;;;;;18.80;10.40;;;;;;;13.68;100.00;99189.97;215019;1285;139316;-87
2023/10/29 15:08:54;;;;;;;20.80;9.40;;;;;;;13.67;100.00;99211.31;214567;1291;140818;-84
2023/10/29 15:13:54;;;;;;;21.70;9.70;;;;;;;13.66;100.00;99214.66;215032;1286;138887;-85
2023/10/29 15:18:55;;;;;;;18.60;10.80;;;;;;;13.64;100.00;99205.63;214567;1291;140224;-85
2023/10/29 15:23:58;;;;;;;21.10;10.70;;;;;;;13.59;100.00;99196.24;214709;1286;139404;-84
2023/10/29 15:28:58;;;;;;;17.20;10.20;;;;;;;13.53;100.00;99201.98;214262;1289;140475;-84
2023/10/29 15:33:59;;;;;;;19.60;9.50;;;;;;;13.48;100.00;99197.17;214851;1286;139722;-88
2023/10/29 15:39:00;;;;;;;19.30;10.30;;;;;;;13.47;100.00;99199.90;214471;1287;141239;-87
2023/10/29 15:44:00;;;;;;;18.50;9.50;;;;;;;13.46;100.00;99195.89;215144;1291;138981;-86
2023/10/29 15:49:01;;;;;;;17.50;9.70;;;;;;;13.43;100.00;99199.50;214597;1286;140305;-88
2023/10/29 15:54:02;;;;;;;22.20;10.00;;;;;;;13.40;100.00;99189.70;214881;1291;139208;-86
2023/10/29 15:59:07;;;;;;;18.80;10.50;;;;;;;13.37;100.00;99190.54;214624;1288;141505;-85
2023/10/29 16:04:08;;;;;;;18.00;10.10;;;;;;;13.34;100.00;99190.83;214972;1285;140072;-86
2023/10/29 16:09:10;;;;;;;19.10;10.90;;;;;;;13.32;100.00;99192.70;214405;1288;140328;-88
2023/10/29 16:14:12;;;;;;;22.80;12.40;;;;;;;13.25;100.00;99184.77;215021;1291;139346;-88
2023/10/29 16:19:12;;;;;;;23.40;12.70;;;;;;;13.22;100.00;99193.82;214462;1287;140804;-88
2023/10/29 16:24:13;;;;;;;26.00;14.60;;;;;;;13.18;100.00;99193.91;215368;1285;139054;-88
2023/10/29 16:29:15;;;;;;;27.30;14.50;;;;;;;13.16;100.00;99194.98;214990;1291;141605;-88
2023/10/29 16:34:18;;;;;;;24.80;14.60;;;;;;;13.15;100.00;99202.18;215598;1288;138890;-88
2023/10/29 16:39:19;;;;;;;20.60;11.40;;;;;;;13.15;100.00;99200.92;215000;1285;140518;-89
2023/10/29 16:44:19;;;;;;;22.00;11.10;;;;;;;13.14;100.00;99202.97;215297;1289;139449;-88
2023/10/29 16:49:20;;;;;;;24.00;11.60;;;;;;;13.14;100.00;99200.39;214621;1286;140630;-87
2023/10/29 16:54:21;;;;;;;19.60;10.50;;;;;;;13.14;100.00;99193.77;215315;1291;139137;-87
2023/10/29 16:59:22;;;;;;;22.00;11.20;;;;;;;13.14;100.00;99202.52;214849;1286;141234;-88
2023/10/29 17:04:23;;;;;;;21.80;12.50;;;;;;;13.14;100.00;99201.40;215459;1291;139335;-88
2023/10/29 17:09:28;;;;;;;25.10;11.80;;;;;;;13.15;100.00;99201.56;214847;1288;140429;-87
2023/10/29 17:14:29;;;;;;;20.90;12.00;;;;;;;13.15;100.00;99193.26;215025;1291;139046;-86
2023/10/29 17:19:31;;;;;;;22.80;11.80;;;;;;;13.17;100.00;99205.84;215076;1288;140513;-87
2023/10/29 17:24:32;;;;;;;23.20;12.90;;;;;;;13.19;100.00;99196.73;215500;1285;139768;-85
2023/10/29 17:29:32;;;;;;;28.50;13.70;;;;;;;13.20;100.00;99192.83;215132;1286;141413;-86
2023/10/29 17:34:33;;;;;;;27.60;14.90;;;;;;;13.23;100.00;99188.06;215302;1285;139387;-87
2023/10/29 17:39:34;;;;;;;28.30;15.00;;;;;;;13.23;100.00;99170.99;214493;1290;141650;-90
2023/10/29 17:44:34;;;;;;;25.00;13.90;;;;;;;13.26;100.00;99175.59;215294;1290;139168;-86
2023/10/29 17:49:35;;;;;;;22.50;12.60;;;;;;;13.28;100.00;99173.04;214536;1289;140907;-86
2023/10/29 17:54:36;;;;;;;24.00;12.60;;;;;;;13.30;100.00;99174.65;215050;1286;139008;-86
2023/10/29 17:59:37;;;;;;;23.40;11.60;;;;;;;13.30;100.00;99174.80;214714;1292;140487;-86
2023/10/29 18:04:38;;;;;;;22.40;12.80;;;;;;;13.32;100.00;99179.13;215416;1286;138881;-86
2023/10/29 18:09:38;;;;;;;21.60;12.60;;;;;;;13.32;100.00;99175.55;214878;1289;141046;-86
2023/10/29 18:14:39;;;;;;;21.90;12.90;;;;;;;13.32;100.00;99179.11;215131;1291;139483;-86
2023/10/29 18:19:40;;;;;;;25.70;13.30;;;;;;;13.33;100.00;99174.90;214868;1291;141417;-88
2023/10/29 18:24:41;;;;;;;22.20;12.30;;;;;;;13.34;100.00;99170.23;215154;1291;139437;-87
2023/10/29 18:29:42;;;;;;;27.40;14.50;;;;;;;13.35;100.00;99170.92;214986;1289;140710;-85
2023/10/29 18:34:42;;;;;;;24.20;13.00;;;;;;;13.36;100.00;99179.82;215062;1292;139266;-85
2023/10/29 18:39:43;;;;;;;25.80;13.10;;;;;;;13.37;100.00;99176.23;214999;1291;142138;-85
2023/10/29 18:44:44;;;;;;;26.20;14.20;;;;;;;13.38;100.00;99175.44;215325;1291;139793;-85
2023/10/29 18:49:44;;;;;;;23.50;14.50;;;;;;;13.37;100.00;99163.69;215022;1290;421909;-85
2023/10/29 18:54:45;;;;;;;25.00;13.00;;;;;;;13.36;100.00;99166.39;215498;1289;139769;-85
2023/10/29 18:59:46;;;;;;;21.30;12.80;;;;;;;13.35;100.00;99155.84;214907;1292;141240;-85
2023/10/29 19:04:46;;;;;;;19.80;11.80;;;;;;;13.35;100.00;99155.20;215602;1289;99300;-85
2023/10/29 19:09:48;;;;;;;25.30;12.10;;;;;;;13.35;100.00;99164.29;215004;1286;140974;-86
2023/10/29 19:14:49;;;;;;;21.70;12.40;;;;;;;13.35;100.00;99158.91;214870;1292;139518;-84
2023/10/29 19:19:50;;;;;;;18.80;11.00;;;;;;;13.35;100.00;99153.14;214631;1291;140470;-85
2023/10/29 19:24:53;;;;;;;18.40;10.30;;;;;;;13.34;100.00;99150.50;215600;1293;139678;-84
2023/10/29 19:29:54;;;;;;;18.40;10.20;;;;;;;13.34;100.00;99160.27;215033;1289;141042;-85
2023/10/29 19:34:56;;;;;;;15.10;8.30;;;;;;;13.38;100.00;99155.06;215426;1288;99285;-84
2023/10/29 19:39:58;;;;;;;17.70;10.00;;;;;;;13.39;100.00;99137.66;214708;1287;141029;-85
2023/10/29 19:45:02;;;;;;;17.60;9.50;;;;;;;13.40;100.00;99144.90;215507;1288;139547;-85
2023/10/29 19:50:07;;;;;;;19.90;10.40;;;;;;;13.41;100.00;99142.05;214980;1286;140256;-84
2023/10/29 19:55:07;;;;;;;18.50;10.00;;;;;;;13.40;100.00;99140.88;214970;1288;139176;-84
2023/10/29 20:00:08;;;;;;;20.70;10.10;;;;;;;13.40;100.00;99148.95;214751;1288;143008;-85
2023/10/29 20:05:10;;;;;;;18.60;9.80;;;;;;;13.40;100.00;99153.75;215375;1285;97983;-85
2023/10/29 20:10:11;;;;;;;16.20;9.50;;;;;;;13.42;100.00;99160.82;215268;1288;139770;-84
2023/10/29 20:15:12;;;;;;;20.60;8.70;;;;;;;13.44;100.00;99152.10;215196;1286;138785;-86
2023/10/29 20:20:14;;;;;;;15.00;7.80;;;;;;;13.45;100.00;99169.27;214421;1289;140658;-86
2023/10/29 20:25:15;;;;;;;14.20;6.70;;;;;;;13.47;100.00;99158.69;215059;1285;139008;-86
2023/10/29 20:30:16;;;;;;;14.20;6.80;;;;;;;13.50;100.00;99155.21;214387;1290;140835;-85
2023/10/29 20:35:17;;;;;;;13.20;6.70;;;;;;;13.52;100.00;99161.32;215182;1286;97941;-89
2023/10/29 20:40:18;;;;;;;17.50;7.30;;;;;;;13.54;100.00;99175.57;214668;1288;140487;-86
2023/10/29 20:45:19;;;;;;;14.10;7.30;;;;;;;13.56;100.00;99186.81;215189;1288;139643;-85
2023/10/29 20:50:19;;;;;;;15.50;7.30;;;;;;;13.58;100.00;99194.99;214416;1290;140335;-85
2023/10/29 20:55:22;;;;;;;16.20;6.40;;;;;;;13.57;100.00;99203.31;215179;1287;139176;-86
2023/10/29 21:00:26;;;;;;;13.30;6.20;;;;;;;13.56;100.00;99204.12;214694;1286;140296;-90
2023/10/29 21:05:27;;;;;;;15.60;7.10;;;;;;;13.59;100.00;99220.89;215042;1285;113280;-88
2023/10/29 21:10:29;;;;;;;14.60;7.50;;;;;;;13.62;100.00;99236.77;214972;1286;140705;-90
2023/10/29 21:15:30;;;;;;;14.70;6.60;;;;;;;13.63;100.00;99245.06;215417;1285;137754;-94
2023/10/29 21:20:31;;;;;;;10.60;5.20;;;;;;;13.64;100.00;99258.55;214772;1285;140296;-91
2023/10/29 21:25:35;;;;;;;9.80;3.90;;;;;;;13.66;100.00;99269.55;215307;1289;139385;-89
2023/10/29 21:30:37;;;;;;;13.30;5.50;;;;;;;13.70;100.00;99277.75;214655;1288;140771;-88
2023/10/29 21:35:38;;;;;;;10.20;3.80;;;;;;;13.74;100.00;99294.60;215168;1285;98041;-88
2023/10/29 21:40:43;;;;;;;9.70;4.20;;;;;;;13.79;100.00;99299.07;215411;1286;140469;-94
2023/10/29 21:45:43;;;;;;;10.80;5.50;;;;;;;13.83;100.00;99310.85;215384;1286;138737;-92
2023/10/29 21:50:55;;;;;;;10.80;5.30;;;;;;;13.82;100.00;99314.34;214213;1285;141571;-89
2023/10/29 21:55:56;;;;;;;15.50;7.70;;;;;;;13.79;100.00;99317.41;215103;1288;139010;-91
2023/10/29 22:00:57;;;;;;;16.70;8.30;;;;;;;13.72;100.00;99317.70;214211;1285;141355;-89
2023/10/29 22:06:03;;;;;;;14.00;7.00;;;;;;;13.64;100.00;99307.51;214786;1286;139041;-90
2023/10/29 22:11:09;;;;;;;14.20;7.20;;;;;;;13.57;100.00;99301.89;214218;1286;141134;-89
2023/10/29 22:16:12;;;;;;;17.70;7.90;;;;;;;13.48;100.00;99295.01;214874;1288;139097;-88
2023/10/29 22:21:12;;;;;;;14.30;7.40;;;;;;;13.43;100.00;99298.67;214645;1285;141132;-88
2023/10/29 22:26:13;;;;;;;14.80;7.80;;;;;;;13.37;100.00;99299.09;214983;1287;139596;-92
2023/10/29 22:31:19;;;;;;;16.40;7.80;;;;;;;13.30;100.00;99297.16;214464;1290;140372;-92